createdAt,value
2018-04-17T00:02:01.353Z,100623.65
2018-04-17T00:04:30.616Z,100627.52
2018-04-17T00:06:59.841Z,100629.11
2018-04-17T00:09:29.812Z,100627.99
2018-04-17T00:11:59.045Z,100625.98
2018-04-17T00:14:28.497Z,100631.93
2018-04-17T00:16:59.229Z,100638.30
2018-04-17T00:19:28.442Z,100638.83
2018-04-17T00:21:57.694Z,100638.83
2018-04-17T00:24:26.896Z,100645.69
2018-04-17T00:26:56.100Z,100638.56
2018-04-17T00:29:25.343Z,100638.73
2018-04-17T00:31:56.069Z,100648.70
2018-04-17T00:34:25.273Z,100651.08
2018-04-17T00:36:55.310Z,100650.31
2018-04-17T00:39:25.354Z,100649.72
2018-04-17T00:41:54.790Z,100642.47
2018-04-17T00:44:23.995Z,100644.82
2018-04-17T00:46:53.222Z,100640.75
2018-04-17T00:49:22.555Z,100635.88
2018-04-17T00:51:51.873Z,100632.33
2018-04-17T00:54:21.046Z,100648.86
2018-04-17T00:56:50.264Z,100639.67
2018-04-17T00:59:19.540Z,100644.73
2018-04-17T01:01:48.737Z,100649.36
2018-04-17T01:04:18.073Z,100655.02
2018-04-17T01:06:47.286Z,100661.27
2018-04-17T01:09:16.516Z,100664.39
2018-04-17T01:11:45.738Z,100666.55
2018-04-17T01:14:14.973Z,100667.47
2018-04-17T01:16:44.198Z,100667.87
2018-04-17T01:19:14.353Z,100670.58
2018-04-17T01:21:43.569Z,100675.09
2018-04-17T01:24:12.815Z,100675.77
2018-04-17T01:26:42.777Z,100673.31
2018-04-17T01:29:12.059Z,100676.89
2018-04-17T01:31:41.256Z,100678.53
2018-04-17T01:34:10.482Z,100676.22
2018-04-17T01:36:39.689Z,100679.64
2018-04-17T01:39:10.430Z,100675.88
2018-04-17T01:41:39.698Z,100673.73
2018-04-17T01:44:08.914Z,100684.98
2018-04-17T01:46:39.618Z,100679.87
2018-04-17T01:49:08.822Z,100678.55
2018-04-17T01:51:38.037Z,100683.63
2018-04-17T01:54:07.253Z,100684.43
2018-04-17T01:56:36.498Z,100682.42
2018-04-17T01:59:05.714Z,100682.36
2018-04-17T02:01:34.911Z,100688.03
2018-04-17T02:04:04.941Z,100687.54
2018-04-17T02:06:35.290Z,100682.77
2018-04-17T02:09:05.246Z,100684.37
2018-04-17T02:11:34.534Z,100687.36
2018-04-17T02:14:04.688Z,100690.16
2018-04-17T02:16:33.901Z,100691.52
2018-04-17T02:19:03.101Z,100691.02
2018-04-17T02:21:32.368Z,100690.25
2018-04-17T02:24:01.578Z,100693.85
2018-04-17T02:26:30.896Z,100699.34
2018-04-17T02:29:00.196Z,100701.86
2018-04-17T02:31:29.401Z,100700.93
2018-04-17T02:33:58.615Z,100711.28
2018-04-17T02:36:28.713Z,100718.76
2018-04-17T02:38:57.976Z,100714.72
2018-04-17T02:41:27.173Z,100718.69
2018-04-17T02:43:56.418Z,100719.05
2018-04-17T02:46:25.631Z,100722.25
2018-04-17T02:48:55.132Z,100726.61
2018-04-17T02:51:25.097Z,100732.19
2018-04-17T02:53:54.300Z,100732.94
2018-04-17T02:56:23.506Z,100729.20
2018-04-17T02:58:52.754Z,100737.73
2018-04-17T03:01:22.018Z,100736.63
2018-04-17T03:03:51.230Z,100733.39
2018-04-17T03:06:21.959Z,100741.58
2018-04-17T03:08:52.694Z,100737.03
2018-04-17T03:11:21.914Z,100739.50
2018-04-17T03:13:51.094Z,100724.82
2018-04-17T03:16:21.088Z,100726.78
2018-04-17T03:18:50.329Z,100735.71
2018-04-17T03:21:19.585Z,100727.58
2018-04-17T03:23:49.583Z,100730.44
2018-04-17T03:26:18.867Z,100729.52
2018-04-17T03:28:48.455Z,100728.99
2018-04-17T03:31:17.659Z,100732.75
2018-04-17T03:33:47.749Z,100726.38
2018-04-17T03:36:17.714Z,100727.33
2018-04-17T03:38:46.965Z,100734.36
2018-04-17T03:41:17.064Z,100727.43
2018-04-17T03:43:46.271Z,100730.14
2018-04-17T03:46:17.070Z,100722.16
2018-04-17T03:48:46.453Z,100729.91
2018-04-17T03:51:15.735Z,100733.08
2018-04-17T03:53:45.177Z,100725.35
2018-04-17T03:56:14.368Z,100729.11
2018-04-17T03:58:43.568Z,100725.35
2018-04-17T04:01:12.845Z,100734.38
2018-04-17T04:03:42.066Z,100735.73
2018-04-17T04:06:11.263Z,100735.75
2018-04-17T04:08:40.479Z,100731.27
2018-04-17T04:11:09.697Z,100731.06
2018-04-17T04:13:39.654Z,100743.82
2018-04-17T04:16:26.953Z,100742.72
2018-04-17T04:19:13.790Z,100738.22
2018-04-17T04:22:00.594Z,100734.20
2018-04-17T04:24:47.427Z,100743.68
2018-04-17T04:27:16.633Z,100747.39
2018-04-17T04:29:45.833Z,100743.09
2018-04-17T04:32:15.067Z,100755.42
2018-04-17T04:34:44.666Z,100766.51
2018-04-17T04:37:14.677Z,100767.20
2018-04-17T04:39:44.662Z,100760.44
2018-04-17T04:42:13.938Z,100765.22
2018-04-17T04:44:43.193Z,100765.58
2018-04-17T04:47:13.186Z,100766.13
2018-04-17T04:49:42.553Z,100764.81
2018-04-17T04:52:11.809Z,100762.27
2018-04-17T04:54:40.952Z,100772.84
2018-04-17T04:57:10.194Z,100774.84
2018-04-17T04:59:39.403Z,100779.00
2018-04-17T05:02:09.402Z,100777.66
2018-04-17T05:04:38.604Z,100779.51
2018-04-17T05:07:08.596Z,100783.55
2018-04-17T05:09:37.796Z,100786.86
2018-04-17T05:12:07.003Z,100786.22
2018-04-17T05:14:36.212Z,100792.16
2018-04-17T05:17:06.173Z,100798.83
2018-04-17T05:19:35.505Z,100806.69
2018-04-17T05:22:04.731Z,100810.90
2018-04-17T05:24:33.949Z,100827.83
2018-04-17T05:27:03.176Z,100825.11
2018-04-17T05:29:32.405Z,100830.52
2018-04-17T05:32:01.610Z,100828.15
2018-04-17T05:34:30.855Z,100833.07
2018-04-17T05:37:00.166Z,100831.70
2018-04-17T05:39:29.395Z,100838.06
2018-04-17T05:41:58.597Z,100842.02
2018-04-17T05:44:27.820Z,100848.98
2018-04-17T05:46:57.086Z,100859.86
2018-04-17T05:49:26.340Z,100854.13
2018-04-17T05:51:55.546Z,100863.00
2018-04-17T05:54:24.917Z,100873.78
2018-04-17T05:56:54.945Z,100881.39
2018-04-17T05:59:24.174Z,100882.06
2018-04-17T06:01:53.369Z,100886.01
2018-04-17T06:04:22.648Z,100890.09
2018-04-17T06:06:52.754Z,100899.36
2018-04-17T06:09:22.741Z,100895.56
2018-04-17T06:11:51.933Z,100894.91
2018-04-17T06:14:21.172Z,100905.81
2018-04-17T06:16:50.395Z,100907.84
2018-04-17T06:19:19.720Z,100909.45
2018-04-17T06:21:49.129Z,100911.16
2018-04-17T06:24:18.333Z,100921.63
2018-04-17T06:26:47.578Z,100914.45
2018-04-17T06:29:16.940Z,100919.70
2018-04-17T06:31:46.969Z,100914.85
2018-04-17T06:34:17.050Z,100918.44
2018-04-17T06:36:46.276Z,100922.30
2018-04-17T06:39:16.242Z,100919.58
2018-04-17T06:41:45.450Z,100919.78
2018-04-17T06:44:14.695Z,100914.44
2018-04-17T06:46:43.897Z,100914.48
2018-04-17T06:49:13.073Z,100911.63
2018-04-17T06:51:42.296Z,100919.97
2018-04-17T06:54:11.600Z,100923.56
2018-04-17T06:56:41.124Z,100922.37
2018-04-17T06:59:10.434Z,100922.58
2018-04-17T07:01:39.676Z,100933.16
2018-04-17T07:04:09.661Z,100937.24
2018-04-17T07:06:38.936Z,100937.22
2018-04-17T07:09:08.233Z,100939.05
2018-04-17T07:11:37.465Z,100950.81
2018-04-17T07:14:06.670Z,100947.28
2018-04-17T07:16:37.503Z,100949.52
2018-04-17T07:19:06.729Z,100956.06
2018-04-17T07:21:36.722Z,100944.59
2018-04-17T07:24:05.939Z,100952.77
2018-04-17T07:26:35.937Z,100953.11
2018-04-17T07:29:05.160Z,100950.93
2018-04-17T07:31:35.155Z,100958.16
2018-04-17T07:34:04.397Z,100959.45
2018-04-17T07:36:33.614Z,100960.84
2018-04-17T07:39:02.836Z,100964.59
2018-04-17T07:41:32.042Z,100962.70
2018-04-17T07:44:02.047Z,100963.08
2018-04-17T07:46:31.289Z,100964.23
2018-04-17T07:49:08.471Z,100969.42
2018-04-17T07:51:37.694Z,100968.23
2018-04-17T07:54:06.921Z,100973.69
2018-04-17T07:56:36.134Z,100983.36
2018-04-17T07:59:05.365Z,100990.78
2018-04-17T08:01:34.614Z,100984.94
2018-04-17T08:04:03.837Z,100985.23
2018-04-17T08:06:33.059Z,100991.80
2018-04-17T08:09:02.435Z,100996.45
2018-04-17T08:11:31.646Z,101000.41
2018-04-17T08:14:01.611Z,101007.77
2018-04-17T08:16:30.842Z,101007.50
2018-04-17T08:19:00.065Z,101012.79
2018-04-17T08:21:29.296Z,101016.31
2018-04-17T08:23:58.809Z,101021.02
2018-04-17T08:26:28.001Z,101021.69
2018-04-17T08:28:57.275Z,101022.98
2018-04-17T08:31:27.257Z,101019.02
2018-04-17T08:33:56.496Z,101018.12
2018-04-17T08:36:26.762Z,101021.48
2018-04-17T08:38:55.977Z,101020.88
2018-04-17T08:41:25.961Z,101018.00
2018-04-17T08:43:55.861Z,101018.12
2018-04-17T08:46:25.201Z,101023.97
2018-04-17T08:48:54.460Z,101024.64
2018-04-17T08:51:24.415Z,101018.75
2018-04-17T08:53:53.666Z,101024.43
2018-04-17T08:56:23.127Z,101015.48
2018-04-17T08:58:52.451Z,101021.16
2018-04-17T09:01:21.693Z,101026.52
2018-04-17T09:03:50.921Z,101018.35
2018-04-17T09:06:20.957Z,101015.11
2018-04-17T09:08:50.310Z,101024.62
2018-04-17T09:11:19.520Z,101028.64
2018-04-17T09:13:48.817Z,101022.17
2018-04-17T09:16:18.045Z,101033.03
2018-04-17T09:18:48.206Z,101024.63
2018-04-17T09:21:17.427Z,101015.98
2018-04-17T09:23:46.640Z,101015.54
2018-04-17T09:26:15.859Z,101020.45
2018-04-17T09:28:45.851Z,101017.59
2018-04-17T09:31:15.078Z,101024.30
2018-04-17T09:33:45.185Z,101020.31
2018-04-17T09:36:15.150Z,101025.09
2018-04-17T09:38:44.391Z,101019.87
2018-04-17T09:41:13.781Z,101019.97
2018-04-17T09:43:43.241Z,101023.67
2018-04-17T09:46:12.402Z,101019.73
2018-04-17T09:48:42.389Z,101018.21
2018-04-17T09:51:11.598Z,101017.56
2018-04-17T09:53:41.598Z,101023.49
2018-04-17T09:56:10.908Z,101012.59
2018-04-17T09:58:40.131Z,101016.31
2018-04-17T10:01:14.997Z,101017.69
2018-04-17T10:03:44.253Z,101009.92
2018-04-17T10:06:14.257Z,101008.90
2018-04-17T10:08:43.493Z,101012.01
2018-04-17T10:11:12.728Z,101011.73
2018-04-17T10:13:41.969Z,101016.20
2018-04-17T10:16:11.201Z,101008.11
2018-04-17T10:18:40.433Z,101004.97
2018-04-17T10:21:09.739Z,101000.51
2018-04-17T10:23:38.963Z,101008.31
2018-04-17T10:26:08.187Z,101006.61
2018-04-17T10:28:37.418Z,101010.13
2018-04-17T10:31:06.702Z,101009.20
2018-04-17T10:33:35.960Z,101003.34
2018-04-17T10:36:05.244Z,100999.09
2018-04-17T10:38:34.468Z,101003.84
2018-04-17T10:41:03.722Z,100995.56
2018-04-17T10:43:32.969Z,100995.42
2018-04-17T10:46:02.238Z,100992.87
2018-04-17T10:48:31.608Z,100993.48
2018-04-17T10:51:00.858Z,100995.81
2018-04-17T10:53:31.422Z,100999.58
2018-04-17T10:56:00.745Z,100997.91
2018-04-17T10:58:29.965Z,100992.26
2018-04-17T11:00:59.954Z,100988.94
2018-04-17T11:03:29.201Z,100991.20
2018-04-17T11:05:58.411Z,100990.55
2018-04-17T11:08:27.617Z,100987.03
2018-04-17T11:24:01.866Z,100973.04
2018-04-17T11:26:31.864Z,100969.77
2018-04-17T11:29:01.205Z,100971.37
2018-04-17T11:31:30.657Z,100963.78
2018-04-17T11:33:59.889Z,100972.52
2018-04-17T11:36:29.112Z,100976.16
2018-04-17T11:38:58.341Z,100974.02
2018-04-17T11:41:27.535Z,100971.58
2018-04-17T11:43:56.757Z,100970.66
2018-04-17T11:46:26.257Z,100964.11
2018-04-17T11:48:55.705Z,100963.69
2018-04-17T11:51:25.673Z,100974.55
2018-04-17T11:53:54.914Z,100967.85
2018-04-17T11:56:24.887Z,100967.92
2018-04-17T11:58:54.114Z,100969.70
2018-04-17T12:01:23.340Z,100966.34
2018-04-17T12:03:52.545Z,100967.08
2018-04-17T12:06:21.765Z,100971.77
2018-04-17T12:08:51.013Z,100970.48
2018-04-17T12:11:21.003Z,100968.20
2018-04-17T12:13:51.013Z,100970.24
2018-04-17T12:16:21.196Z,100971.28
2018-04-17T12:18:50.397Z,100974.64
2018-04-17T12:21:19.630Z,100969.89
2018-04-17T12:23:48.841Z,100969.91
2018-04-17T12:26:18.081Z,100963.39
2018-04-17T12:28:47.288Z,100968.13
2018-04-17T12:31:16.531Z,100965.75
2018-04-17T12:33:45.754Z,100961.39
2018-04-17T12:36:15.073Z,100969.76
2018-04-17T12:38:44.182Z,100969.17
2018-04-17T12:41:13.410Z,100965.67
2018-04-17T12:43:42.739Z,100966.66
2018-04-17T12:46:11.993Z,100958.63
2018-04-17T12:48:41.195Z,100948.02
2018-04-17T12:51:10.382Z,100952.44
2018-04-17T12:53:39.630Z,100948.13
2018-04-17T12:56:09.623Z,100956.41
2018-04-17T12:58:38.938Z,100959.22
2018-04-17T13:01:08.930Z,100964.70
2018-04-17T13:03:38.165Z,100966.53
2018-04-17T13:06:07.374Z,100959.96
2018-04-17T13:08:36.597Z,100961.87
2018-04-17T13:11:05.807Z,100965.03
2018-04-17T13:13:35.093Z,100965.48
2018-04-17T13:16:04.334Z,100963.31
2018-04-17T13:18:33.551Z,100958.57
2018-04-17T13:21:03.691Z,100951.05
2018-04-17T13:23:34.090Z,100950.25
2018-04-17T13:26:04.106Z,100948.27
2018-04-17T13:28:33.343Z,100948.68
2018-04-17T13:31:02.575Z,100945.13
2018-04-17T13:33:31.905Z,100941.42
2018-04-17T13:36:01.170Z,100942.41
2018-04-17T13:38:30.391Z,100937.06
2018-04-17T13:41:00.390Z,100930.62
2018-04-17T13:43:29.646Z,100926.11
2018-04-17T13:45:59.000Z,100916.17
2018-04-17T13:48:28.222Z,100919.08
2018-04-17T13:50:58.214Z,100923.58
2018-04-17T13:53:28.242Z,100915.70
2018-04-17T13:55:57.554Z,100914.98
2018-04-17T14:01:02.208Z,100916.77
2018-04-17T14:03:31.434Z,100918.95
2018-04-17T14:06:00.669Z,100917.56
2018-04-17T14:08:30.643Z,100918.89
2018-04-17T14:10:59.865Z,100916.37
2018-04-17T14:13:29.085Z,100919.16
2018-04-17T14:15:59.185Z,100918.41
2018-04-17T14:18:28.392Z,100922.57
2018-04-17T14:20:57.598Z,100919.06
2018-04-17T14:23:27.602Z,100913.19
2018-04-17T14:25:57.614Z,100920.16
2018-04-17T14:28:26.830Z,100919.77
2018-04-17T14:30:56.026Z,100929.91
2018-04-17T14:33:26.074Z,100928.76
2018-04-17T14:35:55.204Z,100930.94
2018-04-17T14:38:24.428Z,100922.98
2018-04-17T14:40:53.654Z,100928.47
2018-04-17T14:43:23.659Z,100933.02
2018-04-17T14:45:53.761Z,100931.48
2018-04-17T14:48:22.945Z,100927.45
2018-04-17T14:50:52.185Z,100936.41
2018-04-17T14:53:21.494Z,100936.64
2018-04-17T14:55:50.751Z,100938.63
2018-04-17T14:58:19.980Z,100941.41
2018-04-17T15:00:49.184Z,100939.41
2018-04-17T15:03:18.371Z,100938.19
2018-04-17T15:05:48.371Z,100935.42
2018-04-17T15:08:17.649Z,100936.20
2018-04-17T15:10:46.870Z,100944.77
2018-04-17T15:13:16.221Z,100943.88
2018-04-17T15:15:45.463Z,100946.66
2018-04-17T15:18:15.477Z,100943.25
2018-04-17T15:20:44.730Z,100948.28
2018-04-17T15:23:14.112Z,100946.55
2018-04-17T15:25:43.322Z,100944.05
2018-04-17T15:28:12.574Z,100946.16
2018-04-17T15:30:41.820Z,100954.66
2018-04-17T15:33:11.013Z,100949.80
2018-04-17T15:35:40.282Z,100946.74
2018-04-17T15:38:10.283Z,100948.95
2018-04-17T15:40:40.294Z,100940.86
2018-04-17T15:43:09.533Z,100943.61
2018-04-17T15:45:38.792Z,100945.95
2018-04-17T15:48:08.038Z,100952.05
2018-04-17T15:50:38.009Z,100945.28
2018-04-17T15:53:07.205Z,100945.80
2018-04-17T15:55:37.206Z,100939.27
2018-04-17T15:58:06.413Z,100939.50
2018-04-17T16:00:35.697Z,100932.77
2018-04-17T16:03:04.909Z,100940.30
2018-04-17T16:05:34.112Z,100940.66
2018-04-17T16:08:04.237Z,100936.09
2018-04-17T16:10:34.223Z,100933.92
2018-04-17T16:13:03.448Z,100931.74
2018-04-17T16:15:32.699Z,100932.57
2018-04-17T16:18:01.918Z,100933.13
2018-04-17T16:20:32.826Z,100935.51
2018-04-17T16:23:02.050Z,100930.75
2018-04-17T16:25:31.285Z,100933.72
2018-04-17T16:28:01.549Z,100932.77
2018-04-17T16:30:30.767Z,100936.94
2018-04-17T16:32:59.994Z,100937.92
2018-04-17T16:35:29.187Z,100940.45
2018-04-17T16:37:58.430Z,100948.17
2018-04-17T16:40:27.638Z,100942.58
2018-04-17T16:42:56.855Z,100946.70
2018-04-17T16:45:26.088Z,100947.65
2018-04-17T16:47:56.169Z,100956.16
2018-04-17T16:50:25.445Z,100958.13
2018-04-17T16:52:54.664Z,100971.39
2018-04-17T16:55:23.884Z,100966.75
2018-04-17T16:57:53.090Z,100969.27
2018-04-17T17:00:22.325Z,100974.38
2018-04-17T17:02:51.559Z,100973.03
2018-04-17T17:05:20.872Z,100975.56
2018-04-17T17:07:50.041Z,100970.26
2018-04-17T17:10:19.266Z,100983.91
2018-04-17T17:12:48.484Z,100979.72
2018-04-17T17:15:18.502Z,100987.61
2018-04-17T17:17:48.473Z,100985.60
2018-04-17T17:20:17.718Z,100994.03
2018-04-17T17:22:46.922Z,100996.80
2018-04-17T17:25:16.951Z,101000.69
2018-04-17T17:27:46.181Z,101001.48
2018-04-17T17:30:15.430Z,101006.83
2018-04-17T17:32:45.413Z,101013.59
2018-04-17T17:35:14.664Z,101015.92
2018-04-17T17:37:43.886Z,101019.53
2018-04-17T17:40:13.154Z,101024.69
2018-04-17T17:42:43.181Z,101025.98
2018-04-17T17:45:13.311Z,101017.39
2018-04-17T17:47:43.253Z,101024.53
2018-04-17T17:50:12.485Z,101022.21
2018-04-17T17:52:42.510Z,101024.91
2018-04-17T17:55:11.765Z,101024.59
2018-04-17T17:57:41.024Z,101028.64
2018-04-17T18:00:10.300Z,101030.24
2018-04-17T18:02:40.281Z,101025.00
2018-04-17T18:05:09.517Z,101029.38
2018-04-17T18:07:39.518Z,101030.46
2018-04-17T18:10:08.735Z,101034.27
2018-04-17T18:12:38.743Z,101035.33
2018-04-17T18:15:08.787Z,101037.58
2018-04-17T18:17:38.013Z,101040.65
2018-04-17T18:20:07.234Z,101049.85
2018-04-17T18:22:36.469Z,101051.01
2018-04-17T18:25:05.726Z,101046.43
2018-04-17T18:27:34.975Z,101043.52
2018-04-17T18:30:04.179Z,101052.46
2018-04-17T18:32:33.489Z,101056.65
2018-04-17T18:35:02.701Z,101051.39
2018-04-17T18:37:31.902Z,101051.94
2018-04-17T18:40:01.119Z,101060.20
2018-04-17T18:42:31.160Z,101056.56
2018-04-17T18:45:01.150Z,101066.19
2018-04-17T18:47:30.385Z,101072.71
2018-04-17T18:49:59.596Z,101084.55
2018-04-17T18:52:28.815Z,101076.66
2018-04-17T18:54:58.102Z,101078.84
2018-04-17T18:57:27.315Z,101089.72
2018-04-17T18:59:56.561Z,101091.06
2018-04-17T19:02:26.626Z,101095.63
2018-04-17T19:04:55.905Z,101094.80
2018-04-17T19:07:25.140Z,101087.63
2018-04-17T19:09:54.584Z,101095.59
2018-04-17T19:12:23.815Z,101100.84
2018-04-17T19:14:53.090Z,101098.73
2018-04-17T19:17:23.091Z,101095.72
2018-04-17T19:19:53.143Z,101102.03
2018-04-17T19:22:23.521Z,101104.98
2018-04-17T19:24:52.746Z,101106.55
2018-04-17T19:27:21.976Z,101105.57
2018-04-17T19:29:51.247Z,101107.16
2018-04-17T19:32:20.513Z,101116.47
2018-04-17T19:34:50.507Z,101115.60
2018-04-17T19:37:19.806Z,101123.62
2018-04-17T19:39:49.107Z,101122.66
2018-04-17T19:42:18.326Z,101131.25
2018-04-17T19:44:47.586Z,101127.53
2018-04-17T19:47:16.809Z,101126.38
2018-04-17T19:49:46.001Z,101131.91
2018-04-17T19:52:15.277Z,101126.90
2018-04-17T19:54:44.520Z,101128.53
2018-04-17T19:57:13.811Z,101140.02
2018-04-17T19:59:43.807Z,101131.05
2018-04-17T20:02:13.189Z,101137.13
2018-04-17T20:04:43.175Z,101143.23
2018-04-17T20:07:12.424Z,101137.78
2018-04-17T20:09:41.675Z,101137.25
2018-04-17T20:12:11.056Z,101137.99
2018-04-17T20:14:41.078Z,101141.17
2018-04-17T20:17:10.297Z,101136.80
2018-04-17T20:19:39.603Z,101140.80
2018-04-17T20:22:08.949Z,101144.29
2018-04-17T20:24:38.319Z,101144.34
2018-04-17T20:27:07.826Z,101143.12
2018-04-17T20:29:37.068Z,101145.63
2018-04-17T20:32:07.066Z,101141.90
2018-04-17T20:34:36.315Z,101143.57
2018-04-17T20:37:05.713Z,101143.23
2018-04-17T20:39:34.964Z,101145.76
2018-04-17T20:42:04.250Z,101146.55
2018-04-17T20:44:33.453Z,101147.89
2018-04-17T20:47:02.703Z,101141.75
2018-04-17T20:49:32.101Z,101142.38
2018-04-17T20:52:01.314Z,101141.81
2018-04-17T20:54:30.566Z,101142.23
2018-04-17T20:56:59.823Z,101147.64
2018-04-17T20:59:29.059Z,101145.02
2018-04-17T21:01:58.311Z,101154.98
2018-04-17T21:04:27.539Z,101155.20
2018-04-17T21:06:56.781Z,101164.58
2018-04-17T21:09:26.767Z,101159.79
2018-04-17T21:11:56.014Z,101164.34
2018-04-17T21:14:26.284Z,101167.25
2018-04-17T21:16:55.502Z,101165.81
2018-04-17T21:19:24.721Z,101167.30
2018-04-17T21:21:53.953Z,101165.72
2018-04-17T21:24:23.170Z,101171.42
2018-04-17T21:26:52.398Z,101170.20
2018-04-17T21:29:22.404Z,101170.07
2018-04-17T21:31:51.647Z,101173.50
2018-04-17T21:34:20.872Z,101169.94
2018-04-17T21:36:50.129Z,101177.02
2018-04-17T21:39:19.404Z,101183.73
2018-04-17T21:41:49.400Z,101179.53
2018-04-17T21:44:19.409Z,101175.82
2018-04-17T21:46:48.660Z,101180.42
2018-04-17T21:49:18.132Z,101185.84
2018-04-17T21:51:48.161Z,101190.36
2018-04-17T21:54:18.214Z,101189.27
2018-04-17T21:56:47.502Z,101183.15
2018-04-17T21:59:16.742Z,101189.75
2018-04-17T22:01:46.153Z,101184.31
2018-04-17T22:04:15.418Z,101184.73
2018-04-17T22:06:44.649Z,101192.50
2018-04-17T22:09:13.906Z,101194.04
2018-04-17T22:11:43.098Z,101201.80
2018-04-17T22:14:12.360Z,101199.30
2018-04-17T22:16:41.578Z,101203.65
2018-04-17T22:19:10.819Z,101209.16
2018-04-17T22:21:40.039Z,101203.26
2018-04-17T22:24:09.319Z,101205.20
2018-04-17T22:26:38.533Z,101208.59
2018-04-17T22:29:07.777Z,101218.28
2018-04-17T22:31:37.732Z,101214.68
2018-04-17T22:34:06.988Z,101218.05
2018-04-17T22:36:36.250Z,101219.53
2018-04-17T22:39:06.998Z,101220.49
2018-04-17T22:41:36.349Z,101225.52
2018-04-17T22:44:05.576Z,101230.90
2018-04-17T22:46:34.973Z,101223.35
2018-04-17T22:49:05.718Z,101221.69
2018-04-17T22:51:38.542Z,101230.21
2018-04-17T22:54:07.786Z,101233.28
2018-04-17T22:56:37.018Z,101236.45
2018-04-17T22:59:06.197Z,101237.66
2018-04-17T23:01:35.431Z,101238.16
2018-04-17T23:04:04.665Z,101234.05
2018-04-17T23:06:33.893Z,101235.59
2018-04-17T23:09:03.089Z,101235.92
2018-04-17T23:11:33.091Z,101238.42
2018-04-17T23:14:02.317Z,101240.59
2018-04-17T23:16:31.637Z,101238.75
2018-04-17T23:19:00.857Z,101241.81
2018-04-17T23:21:30.106Z,101242.78
2018-04-17T23:24:00.325Z,101241.41
2018-04-17T23:26:30.317Z,101242.70
2018-04-17T23:28:59.528Z,101239.43
2018-04-17T23:31:28.753Z,101249.64
2018-04-17T23:33:58.094Z,101245.00
2018-04-17T23:36:27.499Z,101251.66
2018-04-17T23:38:56.729Z,101250.87
2018-04-17T23:41:25.961Z,101252.39
2018-04-17T23:43:55.183Z,101255.52
2018-04-17T23:46:24.421Z,101252.88
2018-04-17T23:48:53.722Z,101256.57
2018-04-17T23:51:23.725Z,101260.18
2018-04-17T23:53:52.942Z,101261.80
2018-04-17T23:56:22.935Z,101258.41
2018-04-17T23:58:52.145Z,101268.55
